createdAt,value
2017-11-16T00:00:02.195Z,15.80
2017-11-16T00:02:30.173Z,15.87
2017-11-16T00:04:58.146Z,15.00
2017-11-16T00:07:26.104Z,14.77
2017-11-16T00:09:54.130Z,13.67
2017-11-16T00:12:22.096Z,13.77
2017-11-16T00:14:50.120Z,14.00
2017-11-16T00:17:18.116Z,15.03
2017-11-16T00:19:46.111Z,15.57
2017-11-16T00:22:14.100Z,14.17
2017-11-16T00:27:15.211Z,14.00
2017-11-16T00:29:43.158Z,14.87
2017-11-16T00:32:11.184Z,13.73
2017-11-16T00:34:39.198Z,13.27
2017-11-16T00:37:07.295Z,14.77
2017-11-16T00:39:35.250Z,13.73
2017-11-16T00:42:03.256Z,15.13
2017-11-16T00:44:31.236Z,15.17
2017-11-16T00:46:59.208Z,16.83
2017-11-16T00:49:27.313Z,15.10
2017-11-16T00:51:55.410Z,17.13
2017-11-16T00:54:23.571Z,17.90
2017-11-16T00:56:51.607Z,16.90
2017-11-16T00:59:19.566Z,17.30
2017-11-16T01:01:47.560Z,18.27
2017-11-16T01:04:15.521Z,17.70
2017-11-16T01:06:43.497Z,18.73
2017-11-16T01:09:11.806Z,17.80
2017-11-16T01:11:39.850Z,16.40
2017-11-16T01:14:07.800Z,19.20
2017-11-16T01:16:35.773Z,19.13
2017-11-16T01:19:03.782Z,20.60
2017-11-16T01:21:32.237Z,19.50
2017-11-16T01:24:00.213Z,20.87
2017-11-16T01:26:28.415Z,20.10
2017-11-16T01:28:56.481Z,21.23
2017-11-16T01:31:24.585Z,19.97
2017-11-16T01:33:52.550Z,22.10
2017-11-16T01:36:20.572Z,21.13
2017-11-16T01:38:48.593Z,24.97
2017-11-16T01:41:16.610Z,22.30
2017-11-16T01:43:45.894Z,22.37
2017-11-16T01:46:13.965Z,23.63
2017-11-16T01:48:42.023Z,21.07
2017-11-16T01:51:10.159Z,20.07
2017-11-16T01:53:38.205Z,23.17
2017-11-16T01:56:06.168Z,22.10
2017-11-16T01:58:34.130Z,22.17
2017-11-16T02:01:02.107Z,22.70
2017-11-16T02:03:30.178Z,20.20
2017-11-16T02:05:58.138Z,19.63
2017-11-16T02:08:26.116Z,22.20
2017-11-16T02:10:54.788Z,20.53
2017-11-16T02:13:27.498Z,22.13
2017-11-16T02:15:55.942Z,21.47
2017-11-16T02:18:23.930Z,20.83
2017-11-16T02:20:51.904Z,20.13
2017-11-16T02:23:19.915Z,19.57
2017-11-16T02:25:47.940Z,17.40
2017-11-16T02:28:15.919Z,18.60
2017-11-16T02:30:43.894Z,18.40
2017-11-16T02:33:11.869Z,20.40
2017-11-16T02:35:39.840Z,21.00
2017-11-16T02:38:07.874Z,21.37
2017-11-16T02:40:35.830Z,20.90
2017-11-16T02:43:03.811Z,21.33
2017-11-16T02:45:31.766Z,20.60
2017-11-16T02:47:59.868Z,21.30
2017-11-16T02:50:27.838Z,20.00
2017-11-16T02:52:55.880Z,20.17
2017-11-16T02:55:23.881Z,21.10
2017-11-16T02:57:51.836Z,21.77
2017-11-16T03:00:19.835Z,21.33
2017-11-16T03:02:47.797Z,21.20
2017-11-16T03:05:15.745Z,23.23
2017-11-16T03:07:43.732Z,23.10
2017-11-16T03:10:11.740Z,21.43
2017-11-16T03:12:39.709Z,22.80
2017-11-16T03:15:07.680Z,24.20
2017-11-16T03:17:35.654Z,22.30
2017-11-16T03:20:03.596Z,21.87
2017-11-16T03:22:31.555Z,21.57
2017-11-16T03:24:59.566Z,21.83
2017-11-16T03:27:27.626Z,21.63
2017-11-16T03:29:55.592Z,20.80
2017-11-16T03:32:23.617Z,19.73
2017-11-16T03:34:51.532Z,20.53
2017-11-16T03:37:19.523Z,21.83
2017-11-16T03:39:47.534Z,21.47
2017-11-16T03:42:15.515Z,21.03
2017-11-16T03:44:43.530Z,21.00
2017-11-16T03:47:11.561Z,18.27
2017-11-16T03:49:39.609Z,17.80
2017-11-16T03:52:07.894Z,18.80
2017-11-16T03:54:35.877Z,17.93
2017-11-16T03:57:03.792Z,17.93
2017-11-16T03:59:31.790Z,18.30
2017-11-16T04:01:59.789Z,16.90
2017-11-16T04:04:27.765Z,17.00
2017-11-16T04:06:55.706Z,17.60
2017-11-16T04:09:23.650Z,18.67
2017-11-16T04:11:51.638Z,16.57
2017-11-16T04:14:19.586Z,16.80
2017-11-16T04:16:47.518Z,16.40
2017-11-16T04:19:15.497Z,20.07
2017-11-16T04:21:43.466Z,17.00
2017-11-16T04:24:11.442Z,16.27
2017-11-16T04:26:39.406Z,15.90
2017-11-16T04:29:07.420Z,18.60
2017-11-16T04:31:35.486Z,18.23
2017-11-16T04:34:03.565Z,17.33
2017-11-16T04:36:31.509Z,17.87
2017-11-16T04:38:59.493Z,17.43
2017-11-16T04:41:27.574Z,18.30
2017-11-16T04:43:55.568Z,17.97
2017-11-16T04:46:23.543Z,18.20
2017-11-16T04:48:51.583Z,16.80
2017-11-16T04:51:19.580Z,17.93
2017-11-16T04:53:47.649Z,18.90
2017-11-16T04:56:15.696Z,18.70
2017-11-16T04:58:43.663Z,17.37
2017-11-16T05:01:11.634Z,19.37
2017-11-16T05:03:39.597Z,19.03
2017-11-16T05:06:07.559Z,19.30
2017-11-16T05:08:36.866Z,19.50
2017-11-16T05:11:04.973Z,20.50
2017-11-16T05:13:32.928Z,19.13
2017-11-16T05:16:00.858Z,20.83
2017-11-16T05:18:28.855Z,19.50
2017-11-16T05:20:56.952Z,19.67
2017-11-16T05:23:24.908Z,22.43
2017-11-16T05:25:52.861Z,19.20
2017-11-16T05:28:20.828Z,20.60
2017-11-16T05:30:48.799Z,18.10
2017-11-16T05:33:16.780Z,21.73
2017-11-16T05:35:44.766Z,22.43
2017-11-16T05:38:12.782Z,19.37
2017-11-16T05:40:40.742Z,23.03
2017-11-16T05:43:08.772Z,24.27
2017-11-16T05:45:37.168Z,21.73
2017-11-16T05:48:05.204Z,20.93
2017-11-16T05:50:33.482Z,22.83
2017-11-16T05:53:01.450Z,19.87
2017-11-16T05:55:29.556Z,22.97
2017-11-16T05:57:57.849Z,22.70
2017-11-16T06:00:25.836Z,21.87
2017-11-16T06:02:55.801Z,23.17
2017-11-16T06:05:23.782Z,26.73
2017-11-16T06:07:51.745Z,24.47
2017-11-16T06:10:19.754Z,24.07
2017-11-16T06:12:47.807Z,26.70
2017-11-16T06:15:17.597Z,23.93
2017-11-16T06:17:45.620Z,24.57
2017-11-16T06:20:13.831Z,25.17
2017-11-16T06:22:42.419Z,27.00
2017-11-16T06:25:10.582Z,27.90
2017-11-16T06:27:38.591Z,26.67
2017-11-16T06:30:06.692Z,25.60
2017-11-16T06:32:34.721Z,26.60
2017-11-16T06:35:03.751Z,27.80
2017-11-16T06:37:31.757Z,28.60
2017-11-16T06:39:59.797Z,26.93
2017-11-16T06:42:27.843Z,29.83
2017-11-16T06:44:55.875Z,28.77
2017-11-16T06:47:23.962Z,30.93
2017-11-16T06:49:52.436Z,32.80
2017-11-16T06:52:20.409Z,32.07
2017-11-16T06:54:49.761Z,30.00
2017-11-16T06:57:17.776Z,26.90
2017-11-16T06:59:45.992Z,31.03
2017-11-16T07:02:14.046Z,30.00
2017-11-16T07:04:42.031Z,30.30
2017-11-16T07:07:09.991Z,30.20
2017-11-16T07:09:37.959Z,30.63
2017-11-16T07:12:05.903Z,29.40
2017-11-16T07:14:34.325Z,29.37
2017-11-16T07:17:02.274Z,33.30
2017-11-16T07:19:30.288Z,31.47
2017-11-16T07:21:58.395Z,32.10
2017-11-16T07:24:26.464Z,29.13
2017-11-16T07:26:54.537Z,29.57
2017-11-16T07:29:24.704Z,30.53
2017-11-16T07:31:52.929Z,34.67
2017-11-16T07:34:20.889Z,31.83
2017-11-16T07:36:49.008Z,33.83
2017-11-16T07:39:17.068Z,34.53
2017-11-16T07:41:45.291Z,35.10
2017-11-16T07:44:13.334Z,33.80
2017-11-16T07:46:41.333Z,36.83
2017-11-16T07:49:09.330Z,36.07
2017-11-16T07:51:37.356Z,34.53
2017-11-16T07:54:05.381Z,36.40
2017-11-16T07:56:33.477Z,35.47
2017-11-16T07:59:01.500Z,35.13
2017-11-16T08:01:29.453Z,32.57
2017-11-16T08:03:57.424Z,34.97
2017-11-16T08:06:25.438Z,37.47
2017-11-16T08:08:53.436Z,38.77
2017-11-16T08:11:21.433Z,35.07
2017-11-16T08:13:49.508Z,33.70
2017-11-16T08:16:17.458Z,31.40
2017-11-16T08:18:45.590Z,32.20
2017-11-16T08:21:13.564Z,34.10
2017-11-16T08:23:41.539Z,31.47
2017-11-16T08:26:09.525Z,30.23
2017-11-16T08:28:37.538Z,31.93
2017-11-16T08:31:06.118Z,30.53
2017-11-16T08:33:34.127Z,28.37
2017-11-16T08:36:02.158Z,28.80
2017-11-16T08:38:30.582Z,26.60
2017-11-16T08:40:58.626Z,27.93
2017-11-16T08:43:26.643Z,30.00
2017-11-16T08:45:54.619Z,32.00
2017-11-16T08:48:22.694Z,32.67
2017-11-16T08:50:51.607Z,32.53
2017-11-16T08:53:19.682Z,32.67
2017-11-16T08:55:47.660Z,33.30
2017-11-16T08:58:15.877Z,34.20
2017-11-16T09:00:43.956Z,33.43
2017-11-16T09:05:46.867Z,31.83
2017-11-16T09:08:14.971Z,35.17
2017-11-16T09:10:43.148Z,34.10
2017-11-16T09:13:11.150Z,32.23
2017-11-16T09:15:39.295Z,29.97
2017-11-16T09:18:08.474Z,30.87
2017-11-16T09:20:36.470Z,31.10
2017-11-16T09:23:04.508Z,33.93
2017-11-16T09:25:32.485Z,33.60
2017-11-16T09:28:00.509Z,32.23
2017-11-16T09:30:28.538Z,34.17
2017-11-16T09:32:56.621Z,29.00
2017-11-16T09:35:24.723Z,31.67
2017-11-16T09:37:52.919Z,30.07
2017-11-16T09:40:21.295Z,31.17
2017-11-16T09:42:49.267Z,31.13
2017-11-16T09:45:17.218Z,31.70
2017-11-16T09:47:45.201Z,29.00
2017-11-16T09:50:13.346Z,32.30
2017-11-16T09:52:41.341Z,30.43
2017-11-16T09:55:09.274Z,28.67
2017-11-16T09:57:37.234Z,29.87
2017-11-16T10:00:05.212Z,28.17
2017-11-16T10:02:33.165Z,31.00
2017-11-16T10:05:02.158Z,26.30
2017-11-16T10:07:30.094Z,27.47
2017-11-16T10:09:58.181Z,25.27
2017-11-16T10:12:26.209Z,28.27
2017-11-16T10:14:54.274Z,26.33
2017-11-16T10:17:22.304Z,28.40
2017-11-16T10:19:50.349Z,26.73
2017-11-16T10:22:18.339Z,27.93
2017-11-16T10:24:46.317Z,26.03
2017-11-16T10:27:14.806Z,26.37
2017-11-16T10:29:43.948Z,26.93
2017-11-16T10:32:12.178Z,26.07
2017-11-16T10:34:40.241Z,25.53
2017-11-16T10:37:08.428Z,25.33
2017-11-16T10:39:36.429Z,24.50
2017-11-16T10:42:07.066Z,26.00
2017-11-16T10:44:36.666Z,25.90
2017-11-16T10:47:04.692Z,25.60
2017-11-16T10:49:32.866Z,26.53
2017-11-16T10:52:00.953Z,25.50
2017-11-16T10:54:29.134Z,26.80
2017-11-16T10:56:57.132Z,27.93
2017-11-16T10:59:28.012Z,25.10
2017-11-16T11:01:55.990Z,23.10
2017-11-16T11:04:23.982Z,25.70
2017-11-16T11:06:52.020Z,25.17
2017-11-16T11:09:19.998Z,25.80
2017-11-16T11:11:48.070Z,24.43
2017-11-16T11:14:16.672Z,27.20
2017-11-16T11:16:44.744Z,25.97
2017-11-16T11:19:12.748Z,28.67
2017-11-16T11:21:40.740Z,28.87
2017-11-16T11:24:09.465Z,26.07
2017-11-16T11:26:37.480Z,27.83
2017-11-16T11:29:05.444Z,30.17
2017-11-16T11:31:33.413Z,28.47
2017-11-16T11:34:01.802Z,28.90
2017-11-16T11:36:29.765Z,27.40
2017-11-16T11:38:57.787Z,28.33
2017-11-16T11:41:26.667Z,29.30
2017-11-16T11:43:54.612Z,28.47
2017-11-16T11:46:22.608Z,29.67
2017-11-16T11:48:50.574Z,26.27
2017-11-16T11:51:18.798Z,29.50
2017-11-16T11:53:46.927Z,27.93
2017-11-16T11:58:49.310Z,24.70
2017-11-16T12:01:19.334Z,26.53
2017-11-16T12:03:47.507Z,23.57
2017-11-16T12:06:15.501Z,24.33
2017-11-16T12:08:43.549Z,23.87
2017-11-16T12:11:11.668Z,22.60
2017-11-16T12:13:39.645Z,23.97
2017-11-16T12:16:07.674Z,28.00
2017-11-16T12:18:35.773Z,25.17
2017-11-16T12:21:04.064Z,27.93
2017-11-16T12:23:32.152Z,25.80
2017-11-16T12:26:00.165Z,24.60
2017-11-16T12:28:28.214Z,24.10
2017-11-16T12:30:56.237Z,26.90
2017-11-16T12:33:24.945Z,25.27
2017-11-16T12:35:53.023Z,24.93
2017-11-16T12:38:21.537Z,24.30
2017-11-16T12:40:49.596Z,24.23
2017-11-16T12:43:18.830Z,25.07
2017-11-16T12:45:47.812Z,23.17
2017-11-16T12:48:16.985Z,26.17
2017-11-16T12:50:46.813Z,25.23
2017-11-16T12:53:14.885Z,31.10
2017-11-16T12:55:42.865Z,27.27
2017-11-16T12:58:11.871Z,24.77
2017-11-16T13:00:40.154Z,25.07
2017-11-16T13:03:08.263Z,25.93
2017-11-16T13:05:36.344Z,21.00
2017-11-16T13:08:04.511Z,22.80
2017-11-16T13:10:32.472Z,20.57
2017-11-16T13:13:01.258Z,19.00
2017-11-16T13:15:29.312Z,19.20
2017-11-16T13:17:57.422Z,18.57
2017-11-16T13:20:25.349Z,18.73
2017-11-16T13:22:53.355Z,19.40
2017-11-16T13:25:21.348Z,20.10
2017-11-16T13:27:49.379Z,20.93
2017-11-16T13:30:17.445Z,21.27
2017-11-16T13:32:45.388Z,21.00
2017-11-16T13:35:13.495Z,22.03
2017-11-16T13:37:41.624Z,21.43
2017-11-16T13:40:09.877Z,21.47
2017-11-16T13:42:37.912Z,20.53
2017-11-16T13:45:06.218Z,21.63
2017-11-16T13:47:34.265Z,22.33
2017-11-16T13:50:02.246Z,19.90
2017-11-16T13:52:30.606Z,23.57
2017-11-16T13:54:59.176Z,23.23
2017-11-16T13:57:28.200Z,20.93
2017-11-16T13:59:56.290Z,22.73
2017-11-16T14:02:24.359Z,23.40
2017-11-16T14:04:53.136Z,22.40
2017-11-16T14:07:21.238Z,22.87
2017-11-16T14:09:49.277Z,23.73
2017-11-16T14:12:17.463Z,22.60
2017-11-16T14:14:45.686Z,25.30
2017-11-16T14:17:13.767Z,24.30
2017-11-16T14:19:41.779Z,25.43
2017-11-16T14:22:10.021Z,25.73
2017-11-16T14:24:38.066Z,25.97
2017-11-16T14:27:07.006Z,26.70
2017-11-16T14:29:36.117Z,26.20
2017-11-16T14:32:05.797Z,27.23
2017-11-16T14:34:34.129Z,27.07
2017-11-16T14:37:03.514Z,26.47
2017-11-16T14:39:31.576Z,26.57
2017-11-16T14:41:59.701Z,28.37
2017-11-16T14:44:27.695Z,27.50
2017-11-16T14:46:55.740Z,29.80
2017-11-16T14:49:24.425Z,29.50
2017-11-16T14:51:52.459Z,32.53
2017-11-16T14:54:21.403Z,31.60
2017-11-16T14:56:49.416Z,28.60
2017-11-16T14:59:18.142Z,30.63
2017-11-16T15:01:47.836Z,29.53
2017-11-16T15:04:15.800Z,28.60
2017-11-16T15:06:44.454Z,28.40
2017-11-16T15:09:12.509Z,33.03
2017-11-16T15:11:40.647Z,29.43
2017-11-16T15:14:08.868Z,28.97
2017-11-16T15:16:37.452Z,29.50
2017-11-16T15:19:05.497Z,28.30
2017-11-16T15:21:33.693Z,29.37
2017-11-16T15:24:01.641Z,25.93
2017-11-16T15:26:29.840Z,26.33
2017-11-16T15:28:58.428Z,25.40
2017-11-16T15:31:26.469Z,26.43
2017-11-16T15:33:54.628Z,26.30
2017-11-16T15:36:23.662Z,28.50
2017-11-16T15:38:51.639Z,31.43
2017-11-16T15:41:19.717Z,29.17
2017-11-16T15:43:47.959Z,27.50
2017-11-16T15:46:15.959Z,26.80
2017-11-16T15:48:44.008Z,26.30
2017-11-16T15:51:12.170Z,23.83
2017-11-16T15:53:40.222Z,24.87
2017-11-16T15:56:08.192Z,24.03
2017-11-16T15:58:37.555Z,22.87
2017-11-16T16:01:05.523Z,25.13
2017-11-16T16:03:33.689Z,25.70
2017-11-16T16:06:01.966Z,23.60
2017-11-16T16:08:30.250Z,22.53
2017-11-16T16:10:58.252Z,21.17
2017-11-16T16:13:26.233Z,24.53
2017-11-16T16:15:54.257Z,22.37
2017-11-16T16:18:22.276Z,21.20
2017-11-16T16:20:51.120Z,21.07
2017-11-16T16:23:19.173Z,20.37
2017-11-16T16:25:47.848Z,21.47
2017-11-16T16:28:16.561Z,22.97
2017-11-16T16:30:44.618Z,24.67
2017-11-16T16:33:12.601Z,21.73
2017-11-16T16:35:40.529Z,21.93
2017-11-16T16:38:08.510Z,22.87
2017-11-16T16:40:36.513Z,20.50
2017-11-16T16:43:04.444Z,24.20
2017-11-16T16:45:32.387Z,22.10
2017-11-16T16:48:00.311Z,22.13
2017-11-16T16:50:28.272Z,24.10
2017-11-16T16:52:56.202Z,21.90
2017-11-16T16:55:24.145Z,21.53
2017-11-16T16:57:52.152Z,23.27
2017-11-16T17:00:20.118Z,22.57
2017-11-16T17:02:48.039Z,22.80
2017-11-16T17:05:16.012Z,24.97
2017-11-16T17:07:43.968Z,25.17
2017-11-16T17:10:11.925Z,25.77
2017-11-16T17:12:39.903Z,23.57
2017-11-16T17:15:08.032Z,25.03
2017-11-16T17:17:36.041Z,24.23
2017-11-16T17:20:04.115Z,23.67
2017-11-16T17:22:32.762Z,24.07
2017-11-16T17:25:00.729Z,26.17
2017-11-16T17:27:29.523Z,25.20
2017-11-16T17:29:57.534Z,24.70
2017-11-16T17:32:25.473Z,25.67
2017-11-16T17:34:54.938Z,25.63
2017-11-16T17:37:23.209Z,24.43
2017-11-16T17:39:51.204Z,26.40
2017-11-16T17:42:19.190Z,26.80
2017-11-16T17:44:47.141Z,25.23
2017-11-16T17:47:15.093Z,26.73
2017-11-16T17:49:43.136Z,24.30
2017-11-16T17:52:11.784Z,24.90
2017-11-16T17:54:39.748Z,26.57
2017-11-16T17:57:07.759Z,25.00
2017-11-16T17:59:35.697Z,24.27
2017-11-16T18:02:03.666Z,28.03
2017-11-16T18:04:31.824Z,25.20
2017-11-16T18:07:00.319Z,26.50
2017-11-16T18:09:28.333Z,26.80
2017-11-16T18:11:56.307Z,24.97
2017-11-16T18:14:24.362Z,25.20
2017-11-16T18:16:52.344Z,25.40
2017-11-16T18:19:21.327Z,26.03
2017-11-16T18:21:49.403Z,25.17
2017-11-16T18:24:18.158Z,22.20
2017-11-16T18:26:46.231Z,26.20
2017-11-16T18:29:14.167Z,24.10
2017-11-16T18:31:42.199Z,24.30
2017-11-16T18:34:10.178Z,25.70
2017-11-16T18:36:38.383Z,26.27
2017-11-16T18:39:07.059Z,26.80
2017-11-16T18:41:35.561Z,24.17
2017-11-16T18:44:03.627Z,25.93
2017-11-16T18:46:32.477Z,24.13
2017-11-16T18:49:01.260Z,23.83
2017-11-16T18:51:31.555Z,23.90
2017-11-16T18:53:59.605Z,25.47
2017-11-16T18:56:28.530Z,25.83
2017-11-16T18:58:56.596Z,24.97
2017-11-16T19:01:24.598Z,27.13
2017-11-16T19:03:53.282Z,27.23
2017-11-16T19:06:22.207Z,25.87
2017-11-16T19:08:50.322Z,25.30
2017-11-16T19:11:18.675Z,26.47
2017-11-16T19:13:46.928Z,25.70
2017-11-16T19:16:15.177Z,27.37
2017-11-16T19:18:43.328Z,28.13
2017-11-16T19:21:13.496Z,27.20
2017-11-16T19:23:42.933Z,24.57
2017-11-16T19:26:11.051Z,26.20
2017-11-16T19:28:40.047Z,24.13
2017-11-16T19:31:08.054Z,25.03
2017-11-16T19:33:36.126Z,28.37
2017-11-16T19:36:04.090Z,24.13
2017-11-16T19:38:32.121Z,24.50
2017-11-16T19:41:00.157Z,24.33
2017-11-16T19:43:28.757Z,24.00
2017-11-16T19:45:58.804Z,26.57
2017-11-16T19:48:26.781Z,26.70
2017-11-16T19:50:54.736Z,24.23
2017-11-16T19:53:23.083Z,25.83
2017-11-16T19:55:51.244Z,26.20
2017-11-16T19:58:19.307Z,27.97
2017-11-16T20:00:48.153Z,28.73
2017-11-16T20:03:16.204Z,27.60
2017-11-16T20:05:44.301Z,27.00
2017-11-16T20:08:12.359Z,27.40
2017-11-16T20:10:40.412Z,25.20
2017-11-16T20:13:08.389Z,25.40
2017-11-16T20:15:36.981Z,27.20
2017-11-16T20:18:04.997Z,26.80
2017-11-16T20:20:33.753Z,27.77
2017-11-16T20:23:01.811Z,29.47
2017-11-16T20:25:29.784Z,24.30
2017-11-16T20:27:57.738Z,27.60
2017-11-16T20:30:25.705Z,24.20
2017-11-16T20:32:53.674Z,27.10
2017-11-16T20:35:21.650Z,23.97
2017-11-16T20:37:50.203Z,26.87
2017-11-16T20:40:23.970Z,28.00
2017-11-16T20:42:57.779Z,26.43
2017-11-16T20:45:31.496Z,25.13
2017-11-16T20:51:16.586Z,26.20
2017-11-16T20:53:46.719Z,28.37
2017-11-16T20:56:14.705Z,27.83
2017-11-16T20:58:42.634Z,27.33
2017-11-16T21:01:10.583Z,28.50
2017-11-16T21:03:38.814Z,29.87
2017-11-16T21:06:06.903Z,28.70
2017-11-16T21:08:34.894Z,26.03
2017-11-16T21:11:02.856Z,28.60
2017-11-16T21:13:31.089Z,27.23
2017-11-16T21:15:59.013Z,28.20
2017-11-16T21:18:27.070Z,28.47
2017-11-16T21:20:55.754Z,29.13
2017-11-16T21:23:23.789Z,29.43
2017-11-16T21:25:52.744Z,27.47
2017-11-16T21:28:21.689Z,28.43
2017-11-16T21:30:49.783Z,27.60
2017-11-16T21:33:17.748Z,28.80
2017-11-16T21:35:45.825Z,29.00
2017-11-16T21:38:14.027Z,29.93
2017-11-16T21:40:41.985Z,29.40
2017-11-16T21:43:09.978Z,32.27
2017-11-16T21:45:38.068Z,30.97
2017-11-16T21:48:06.205Z,87.20
2017-11-16T21:50:34.151Z,35.93
2017-11-16T21:53:02.167Z,34.17
2017-11-16T21:55:30.195Z,31.00
2017-11-16T21:57:58.384Z,30.33
2017-11-16T22:00:26.321Z,32.43
2017-11-16T22:02:54.281Z,34.67
2017-11-16T22:05:22.244Z,31.90
2017-11-16T22:07:50.556Z,35.40
2017-11-16T22:10:19.088Z,30.70
2017-11-16T22:12:47.059Z,31.20
2017-11-16T22:15:15.074Z,32.37
2017-11-16T22:17:43.103Z,33.07
2017-11-16T22:20:11.071Z,35.20
2017-11-16T22:22:39.008Z,48.77
2017-11-16T22:25:06.978Z,33.93
2017-11-16T22:27:34.937Z,33.77
2017-11-16T22:30:02.928Z,33.53
2017-11-16T22:32:30.895Z,34.30
2017-11-16T22:34:58.893Z,33.13
2017-11-16T22:37:26.889Z,32.20
2017-11-16T22:39:54.864Z,34.57
2017-11-16T22:42:22.806Z,31.53
2017-11-16T22:44:51.090Z,31.77
2017-11-16T22:47:19.048Z,35.03
2017-11-16T22:49:47.182Z,33.73
2017-11-16T22:52:15.175Z,30.40
2017-11-16T22:54:43.186Z,31.60
2017-11-16T22:57:11.213Z,32.37
2017-11-16T22:59:39.201Z,33.53
2017-11-16T23:02:07.153Z,32.47
2017-11-16T23:04:35.168Z,33.93
2017-11-16T23:07:03.124Z,54.47
2017-11-16T23:09:31.086Z,31.93
2017-11-16T23:11:59.035Z,32.67
2017-11-16T23:14:27.030Z,35.03
2017-11-16T23:16:55.022Z,35.37
2017-11-16T23:19:22.964Z,35.23
2017-11-16T23:21:50.913Z,34.97
2017-11-16T23:24:18.878Z,34.83
2017-11-16T23:26:47.805Z,35.00
2017-11-16T23:29:15.819Z,33.57
2017-11-16T23:31:43.819Z,36.20
2017-11-16T23:34:11.806Z,36.87
2017-11-16T23:36:39.831Z,35.33
2017-11-16T23:39:07.866Z,35.43
2017-11-16T23:41:35.900Z,36.67
2017-11-16T23:44:03.860Z,40.80
2017-11-16T23:46:31.972Z,38.10
2017-11-16T23:49:00.064Z,37.97
2017-11-16T23:51:27.986Z,42.97
2017-11-16T23:53:55.927Z,39.50
2017-11-16T23:56:23.917Z,38.40
2017-11-16T23:58:51.991Z,42.40
